Time;durP1;ratioP1;P1;durP2;ratioP2;P2;SDS_P1;SDS_P2;PMS_P1;PMS_P2;Temp;Humidity;BMP_temperature;BMP_pressure;BME280_temperature;BME280_humidity;BME280_pressure;Samples;Min_cycle;Max_cycle;Signal;HPM_P1;HPM_P2
2021/12/16 00:10:20;;;;;;;56.93;23.30;;;;;;;6.87;100.00;101740.59;10590687;27;20293;-66
2021/12/16 00:31:34;;;;;;;57.83;20.63;;;;;;;7.00;100.00;101720.34;10544674;28;20211;-66
2021/12/16 00:36:39;;;;;;;65.93;23.47;;;;;;;7.07;100.00;101717.91;10544349;28;20219;-67
2021/12/16 00:41:46;;;;;;;66.27;25.60;;;;;;;6.95;100.00;101729.66;10544768;28;20220;-68
2021/12/16 00:47:13;;;;;;;59.57;24.10;;;;;;;6.98;100.00;101732.34;10544103;28;20227;-68
2021/12/16 00:57:43;;;;;;;67.73;25.83;;;;;;;7.04;100.00;101711.84;10543735;28;20227;-67
2021/12/16 01:02:58;;;;;;;53.67;22.47;;;;;;;7.06;100.00;101711.03;10543254;28;20235;-66
2021/12/16 01:08:21;;;;;;;66.73;24.50;;;;;;;7.02;100.00;101715.22;10542888;28;20553;-67
2021/12/16 01:35:00;;;;;;;63.60;23.00;;;;;;;7.15;100.00;101680.25;10584294;28;20226;-66
2021/12/16 01:40:17;;;;;;;46.67;20.63;;;;;;;7.10;100.00;101669.81;10584094;28;20559;-66
2021/12/16 01:50:50;;;;;;;49.23;17.90;;;;;;;7.12;100.00;101664.69;10581081;28;20321;-66
2021/12/16 01:56:01;;;;;;;49.73;20.13;;;;;;;7.18;100.00;101652.81;10587307;28;20533;-65
2021/12/16 02:01:14;;;;;;;47.13;19.60;;;;;;;7.23;100.00;101663.25;10586731;28;20676;-68
2021/12/16 02:06:40;;;;;;;47.00;19.53;;;;;;;7.20;100.00;101666.63;10586000;28;20227;-67
2021/12/16 02:11:52;;;;;;;55.07;20.93;;;;;;;7.18;100.00;101670.03;10585847;28;20449;-69
2021/12/16 02:27:54;;;;;;;51.00;21.93;;;;;;;7.17;100.00;101661.41;10584896;28;20222;-67
2021/12/16 02:33:15;;;;;;;52.10;22.57;;;;;;;7.22;100.00;101671.81;10584628;28;20210;-69
2021/12/16 02:38:22;;;;;;;50.37;22.70;;;;;;;7.32;100.00;101685.00;10584933;28;20215;-70
2021/12/16 02:43:53;;;;;;;44.10;21.63;;;;;;;7.40;100.00;101675.75;10585709;28;20319;-68
2021/12/16 02:48:52;;;;;;;48.27;22.23;;;;;;;7.32;100.00;101666.91;10584262;28;20229;-68
2021/12/16 02:54:02;;;;;;;47.93;20.43;;;;;;;7.44;100.00;101661.19;10584635;28;20187;-71
2021/12/16 02:59:06;;;;;;;52.60;21.97;;;;;;;7.33;100.00;101655.78;10584358;28;20237;-68
2021/12/16 03:04:13;;;;;;;48.90;21.97;;;;;;;7.33;100.00;101665.22;10584562;28;20217;-67
2021/12/16 03:09:29;;;;;;;47.30;21.43;;;;;;;7.39;100.00;101665.34;10584183;28;20613;-67
2021/12/16 03:14:39;;;;;;;52.53;22.90;;;;;;;7.40;100.00;101659.38;10584378;28;20190;-66
2021/12/16 03:20:01;;;;;;;51.37;22.77;;;;;;;7.44;100.00;101658.59;10592727;28;20527;-64
2021/12/16 03:25:17;;;;;;;47.30;20.47;;;;;;;7.46;100.00;101659.50;10592883;28;20221;-70
2021/12/16 03:35:52;;;;;;;47.67;23.90;;;;;;;7.57;100.00;101658.03;10592210;28;20194;-69
2021/12/16 03:40:58;;;;;;;59.87;31.53;;;;;;;7.50;100.00;101650.97;10592357;28;20207;-65
2021/12/16 03:51:32;;;;;;;39.63;20.27;;;;;;;7.65;100.00;101651.31;10591599;28;20728;-65
2021/12/16 03:56:37;;;;;;;43.03;20.13;;;;;;;7.63;100.00;101646.13;10591589;28;20223;-66
2021/12/16 04:01:40;;;;;;;44.40;21.57;;;;;;;7.66;100.00;101645.34;10591279;28;20743;-65
2021/12/16 04:06:44;;;;;;;42.63;20.07;;;;;;;7.63;100.00;101637.50;10591043;28;20223;-64
2021/12/16 04:11:57;;;;;;;40.30;20.73;;;;;;;7.54;100.00;101629.56;10590366;28;20218;-68
2021/12/16 04:17:03;;;;;;;50.67;25.27;;;;;;;7.60;100.00;101638.31;10590938;28;20229;-65
2021/12/16 04:22:09;;;;;;;38.70;19.80;;;;;;;7.67;100.00;101622.13;10590590;28;20217;-67
2021/12/16 04:27:17;;;;;;;42.57;20.43;;;;;;;7.56;100.00;101628.75;10589156;28;20554;-69
2021/12/16 04:32:21;;;;;;;46.53;22.47;;;;;;;7.54;100.00;101620.09;10589825;28;20215;-64
2021/12/16 04:37:24;;;;;;;47.13;21.90;;;;;;;7.58;100.00;101610.69;10589878;28;20229;-66
2021/12/16 04:42:29;;;;;;;48.00;21.93;;;;;;;7.57;100.00;101608.97;10589629;28;20225;-69
2021/12/16 04:47:33;;;;;;;47.27;23.80;;;;;;;7.50;100.00;101610.53;10589282;28;20308;-64
2021/12/16 04:52:37;;;;;;;41.57;19.83;;;;;;;7.46;100.00;101594.91;10589454;28;20231;-66
2021/12/16 04:57:45;;;;;;;47.13;21.97;;;;;;;7.51;100.00;101599.34;10589478;28;20222;-67
2021/12/16 05:02:49;;;;;;;41.70;20.73;;;;;;;7.59;100.00;101608.13;10588692;28;20230;-66
2021/12/16 05:07:53;;;;;;;42.77;20.77;;;;;;;7.54;100.00;101588.22;10588309;28;20263;-64
2021/12/16 05:12:59;;;;;;;42.10;21.33;;;;;;;7.60;100.00;101585.75;10589045;28;20211;-65
2021/12/16 05:18:05;;;;;;;37.20;19.20;;;;;;;7.52;100.00;101598.53;10588227;28;20275;-64
2021/12/16 05:28:33;;;;;;;36.87;18.87;;;;;;;7.56;100.00;101602.06;10587855;28;20248;-66
2021/12/16 05:33:36;;;;;;;41.60;20.63;;;;;;;7.48;100.00;101601.00;10587677;28;20211;-67
2021/12/16 05:38:40;;;;;;;41.20;21.97;;;;;;;7.52;100.00;101598.53;10586945;28;20211;-69
2021/12/16 05:43:45;;;;;;;42.17;21.30;;;;;;;7.55;100.00;101613.22;10587139;28;20550;-66
2021/12/16 05:48:51;;;;;;;38.80;20.00;;;;;;;7.42;100.00;101591.41;10586735;28;20218;-66
2021/12/16 05:53:55;;;;;;;39.10;20.90;;;;;;;7.41;100.00;101581.03;10586592;28;20227;-67
2021/12/16 05:59:00;;;;;;;37.90;19.90;;;;;;;7.43;100.00;101595.75;10586533;28;20249;-68
2021/12/16 06:04:04;;;;;;;36.00;18.20;;;;;;;7.40;100.00;101602.53;10586864;28;20198;-64
2021/12/16 06:09:10;;;;;;;38.43;20.40;;;;;;;7.42;100.00;101596.56;10566220;28;20211;-69
2021/12/16 06:14:22;;;;;;;39.27;19.57;;;;;;;7.35;100.00;101596.41;10540562;28;20191;-69
2021/12/16 06:30:13;;;;;;;34.23;19.03;;;;;;;7.43;100.00;101621.56;10539765;28;20619;-66
2021/12/16 06:35:17;;;;;;;36.50;19.93;;;;;;;7.40;100.00;101610.28;10540262;28;20702;-68
2021/12/16 06:40:21;;;;;;;37.87;20.83;;;;;;;7.37;100.00;101615.41;10539799;28;20223;-67
2021/12/16 06:45:30;;;;;;;33.80;20.80;;;;;;;7.38;100.00;101623.19;10539354;28;20213;-67
2021/12/16 06:50:43;;;;;;;35.53;19.77;;;;;;;7.41;100.00;101628.41;10538750;28;20540;-64
2021/12/16 06:55:53;;;;;;;43.17;23.83;;;;;;;7.51;100.00;101629.47;10538289;28;20222;-67
2021/12/16 07:01:07;;;;;;;36.80;20.63;;;;;;;7.59;100.00;101625.38;10536050;28;20241;-67
2021/12/16 07:06:14;;;;;;;36.47;19.33;;;;;;;7.51;100.00;101619.13;10539013;28;20245;-68
2021/12/16 07:11:19;;;;;;;33.07;18.70;;;;;;;7.45;100.00;101625.06;10219113;27;9999688;-66
2021/12/16 07:16:25;;;;;;;34.77;19.33;;;;;;;7.44;100.00;101617.28;10580850;28;20222;-67
2021/12/16 07:21:28;;;;;;;34.37;19.70;;;;;;;7.49;100.00;101616.53;10539552;28;20250;-67
2021/12/16 07:26:31;;;;;;;35.80;19.80;;;;;;;7.38;100.00;101594.78;10538788;28;20227;-68
2021/12/16 07:31:38;;;;;;;31.63;18.60;;;;;;;7.37;100.00;101594.75;10537887;28;21967;-72
2021/12/16 07:36:44;;;;;;;32.30;19.50;;;;;;;7.36;100.00;101604.19;10538446;28;20210;-66
2021/12/16 07:41:49;;;;;;;35.93;18.93;;;;;;;7.39;100.00;101614.56;10537802;28;20209;-66
2021/12/16 07:46:56;;;;;;;33.83;18.80;;;;;;;7.40;100.00;101613.75;10537990;28;20686;-70
2021/12/16 07:52:01;;;;;;;37.50;22.30;;;;;;;7.40;100.00;101602.53;10537350;28;20285;-68
2021/12/16 07:57:05;;;;;;;35.53;18.33;;;;;;;7.41;100.00;101589.66;10537695;28;20634;-67
2021/12/16 08:02:11;;;;;;;36.00;20.03;;;;;;;7.51;100.00;101595.88;10537884;28;20227;-67
2021/12/16 08:07:18;;;;;;;61.63;35.37;;;;;;;7.54;100.00;101604.56;10545865;28;20278;-69
2021/12/16 08:12:22;;;;;;;36.93;19.80;;;;;;;7.49;100.00;101613.94;10543844;28;20252;-69
2021/12/16 08:17:26;;;;;;;35.13;19.13;;;;;;;7.56;100.00;101615.81;10545142;28;20545;-69
2021/12/16 08:22:30;;;;;;;47.10;26.23;;;;;;;7.57;100.00;101621.88;10545257;28;20203;-69
2021/12/16 08:27:37;;;;;;;37.53;20.60;;;;;;;7.35;100.00;101605.00;10545014;28;20211;-73
2021/12/16 08:32:44;;;;;;;35.60;19.87;;;;;;;7.35;100.00;101612.75;10544756;28;20188;-65
2021/12/16 08:37:47;;;;;;;32.07;17.57;;;;;;;7.31;100.00;101617.81;10544477;28;20194;-68
2021/12/16 08:42:51;;;;;;;34.80;19.13;;;;;;;7.43;100.00;101637.06;10543374;28;20206;-65
2021/12/16 08:47:57;;;;;;;32.17;18.13;;;;;;;7.41;100.00;101646.47;10544043;28;20539;-65
2021/12/16 08:53:01;;;;;;;31.20;18.23;;;;;;;7.52;100.00;101649.31;10543003;28;20216;-71
2021/12/16 08:58:05;;;;;;;35.87;17.90;;;;;;;7.46;100.00;101651.75;10543964;28;20225;-69
2021/12/16 09:03:10;;;;;;;27.87;16.50;;;;;;;7.55;100.00;101642.50;10542692;28;20215;-68
2021/12/16 09:08:15;;;;;;;34.67;18.40;;;;;;;7.53;100.00;101644.19;10542902;28;20211;-68
2021/12/16 09:13:19;;;;;;;31.90;16.33;;;;;;;7.60;100.00;101630.56;10541745;28;20211;-68
2021/12/16 09:18:26;;;;;;;30.33;16.77;;;;;;;7.53;100.00;101627.78;10542947;28;20552;-69
2021/12/16 09:23:30;;;;;;;31.50;16.93;;;;;;;7.52;100.00;101626.06;10542087;28;20215;-66
2021/12/16 09:28:33;;;;;;;29.73;16.00;;;;;;;7.58;100.00;101632.22;10542541;28;20227;-67
2021/12/16 09:33:42;;;;;;;28.50;16.27;;;;;;;7.70;100.00;101619.59;10541427;28;20215;-66
2021/12/16 09:38:46;;;;;;;29.93;15.67;;;;;;;7.68;100.00;101623.00;10543701;28;20302;-65
2021/12/16 09:43:53;;;;;;;27.37;16.33;;;;;;;7.66;100.00;101625.50;10544621;28;20294;-67
2021/12/16 09:48:59;;;;;;;28.40;15.60;;;;;;;7.76;100.00;101629.19;10544761;28;20310;-67
2021/12/16 09:54:06;;;;;;;26.27;14.83;;;;;;;7.80;100.00;101626.69;10544365;28;20218;-64
2021/12/16 09:59:13;;;;;;;25.57;13.23;;;;;;;7.82;100.00;101629.31;10544078;28;20239;-71
2021/12/16 10:04:21;;;;;;;23.37;13.17;;;;;;;7.83;100.00;101637.13;10502151;28;20216;-68
2021/12/16 10:09:26;;;;;;;22.60;11.70;;;;;;;7.93;100.00;101626.13;10504073;28;20234;-65
2021/12/16 10:14:46;;;;;;;33.10;19.23;;;;;;;7.96;100.00;101609.78;10543327;28;20552;-70
2021/12/16 10:19:52;;;;;;;23.90;11.87;;;;;;;7.97;100.00;101612.41;10542568;28;20223;-65
2021/12/16 10:25:16;;;;;;;20.93;11.00;;;;;;;7.97;100.00;101598.63;10540997;28;20606;-67
2021/12/16 10:30:20;;;;;;;20.10;12.20;;;;;;;7.92;100.00;101590.75;10542655;28;20226;-69
2021/12/16 10:35:31;;;;;;;24.10;10.93;;;;;;;8.00;100.00;101580.59;10542746;28;20221;-68
2021/12/16 10:40:37;;;;;;;22.47;11.50;;;;;;;7.99;100.00;101582.28;10542205;28;20234;-66
2021/12/16 10:45:44;;;;;;;22.60;10.93;;;;;;;7.89;100.00;101572.63;10539481;28;20216;-66
2021/12/16 10:50:58;;;;;;;18.93;10.90;;;;;;;7.94;100.00;101583.03;10539150;28;20219;-66
2021/12/16 10:56:02;;;;;;;19.70;11.80;;;;;;;7.95;100.00;101602.88;10542251;28;20232;-67
2021/12/16 11:01:05;;;;;;;23.70;13.00;;;;;;;7.93;100.00;101595.09;10541028;28;20249;-66
2021/12/16 11:06:29;;;;;;;20.83;12.20;;;;;;;7.92;100.00;101579.56;10542129;28;20219;-68
2021/12/16 11:11:33;;;;;;;26.03;13.10;;;;;;;7.92;100.00;101582.16;10541433;28;20306;-66
2021/12/16 11:16:37;;;;;;;24.10;13.30;;;;;;;7.90;100.00;101583.84;10541531;28;20294;-67
2021/12/16 11:21:42;;;;;;;20.87;11.87;;;;;;;7.79;100.00;101575.84;10540999;28;20219;-65
2021/12/16 11:26:46;;;;;;;21.33;12.07;;;;;;;7.86;100.00;101579.44;10541541;28;20211;-67
2021/12/16 11:31:51;;;;;;;21.37;12.13;;;;;;;7.88;100.00;101570.88;10540828;28;20237;-65
2021/12/16 11:36:57;;;;;;;17.43;11.17;;;;;;;7.96;100.00;101576.19;10540550;28;20625;-68
2021/12/16 11:42:03;;;;;;;18.63;10.43;;;;;;;7.98;100.00;101580.56;10194470;27;9999920;-70
2021/12/16 11:47:09;;;;;;;18.97;10.30;;;;;;;8.06;100.00;101568.66;10545872;28;20294;-64
2021/12/16 11:52:19;;;;;;;14.40;9.30;;;;;;;8.13;100.00;101567.03;10545522;28;20212;-66
2021/12/16 11:57:25;;;;;;;18.00;9.47;;;;;;;8.21;100.00;101553.41;10545874;28;20234;-66
2021/12/16 12:02:32;;;;;;;15.80;8.30;;;;;;;8.21;100.00;101575.84;10545057;28;20235;-64
2021/12/16 12:07:42;;;;;;;12.60;7.73;;;;;;;8.24;100.00;101550.06;10546111;28;20231;-67
2021/12/16 12:12:48;;;;;;;14.43;7.73;;;;;;;8.22;100.00;101543.94;10544759;28;20216;-66
2021/12/16 12:17:55;;;;;;;25.43;14.83;;;;;;;8.31;100.00;101551.03;10544790;28;20320;-66
2021/12/16 12:23:01;;;;;;;11.30;7.23;;;;;;;8.42;100.00;101545.19;10544519;28;20219;-67
2021/12/16 12:28:04;;;;;;;10.80;6.00;;;;;;;8.38;100.00;101543.44;10544846;28;20227;-63
2021/12/16 12:33:08;;;;;;;9.77;5.77;;;;;;;8.31;100.00;101545.84;10543970;28;20708;-65
2021/12/16 12:38:14;;;;;;;10.87;5.90;;;;;;;8.29;100.00;101526.84;10544472;28;20681;-63
2021/12/16 12:43:17;;;;;;;9.77;5.13;;;;;;;8.35;100.00;101517.50;10551225;28;20219;-70
2021/12/16 12:48:21;;;;;;;10.50;5.33;;;;;;;8.46;100.00;101521.13;10542989;28;20232;-67
2021/12/16 12:53:34;;;;;;;11.23;4.87;;;;;;;8.43;100.00;101518.50;10543513;28;20215;-65
2021/12/16 12:58:50;;;;;;;8.37;4.20;;;;;;;8.39;100.00;101495.16;10544817;28;20243;-68
2021/12/16 13:04:03;;;;;;;6.53;3.20;;;;;;;8.42;100.00;101511.56;10545920;28;20290;-66
2021/12/16 13:09:23;;;;;;;7.70;3.33;;;;;;;8.38;100.00;101522.72;10545975;28;20223;-65
2021/12/16 13:14:43;;;;;;;7.73;3.30;;;;;;;8.39;100.00;101529.63;10545697;28;20616;-66
2021/12/16 13:30:59;;;;;;;6.57;3.07;;;;;;;8.30;100.00;101502.75;10544978;28;20430;-66
2021/12/16 13:36:05;;;;;;;5.70;2.93;;;;;;;8.33;100.00;101511.44;10545359;28;20207;-66
2021/12/16 13:41:13;;;;;;;7.17;3.23;;;;;;;8.33;100.00;101523.50;10544600;28;20322;-67
2021/12/16 13:46:38;;;;;;;5.90;2.90;;;;;;;8.36;100.00;101519.25;10544362;28;20242;-66
2021/12/16 14:03:03;;;;;;;5.03;2.13;;;;;;;8.20;100.00;101512.91;10541233;28;20578;-67
2021/12/16 14:08:09;;;;;;;5.27;2.57;;;;;;;8.24;100.00;101528.50;10543612;28;20275;-67
2021/12/16 14:24:47;;;;;;;4.80;1.93;;;;;;;8.19;100.00;101552.53;10542801;28;20234;-66
2021/12/16 14:35:40;;;;;;;6.63;2.67;;;;;;;8.22;100.00;101613.78;10542578;28;20215;-65
2021/12/16 14:41:04;;;;;;;5.67;2.50;;;;;;;8.22;100.00;101616.34;10542639;28;20557;-66
2021/12/16 14:46:11;;;;;;;6.70;2.60;;;;;;;8.25;100.00;101600.91;10542529;28;20215;-69
2021/12/16 14:51:15;;;;;;;8.13;2.37;;;;;;;8.23;100.00;101607.78;10542126;28;20310;-66
2021/12/16 14:56:23;;;;;;;6.10;2.50;;;;;;;8.16;100.00;101605.91;10541753;28;20290;-67
2021/12/16 15:01:31;;;;;;;6.00;2.60;;;;;;;8.16;100.00;101591.25;10541661;28;20227;-67
2021/12/16 15:06:42;;;;;;;18.43;8.43;;;;;;;8.11;100.00;101579.09;10541787;28;20306;-64
2021/12/16 15:11:53;;;;;;;8.40;3.50;;;;;;;8.15;100.00;101579.16;10541028;28;20713;-68
2021/12/16 15:17:06;;;;;;;6.90;2.57;;;;;;;8.14;100.00;101590.34;10541239;28;20548;-66
2021/12/16 15:43:38;;;;;;;7.07;2.93;;;;;;;8.01;100.00;101593.53;10537231;28;20227;-67
2021/12/16 15:48:48;;;;;;;6.23;2.73;;;;;;;7.92;100.00;101595.09;10537475;28;20272;-67
2021/12/16 15:53:55;;;;;;;8.73;2.93;;;;;;;7.88;100.00;101606.19;10537705;28;20303;-70
2021/12/16 15:59:01;;;;;;;6.10;2.20;;;;;;;7.89;100.00;101623.44;10537309;28;20243;-67
2021/12/16 16:04:12;;;;;;;5.47;2.60;;;;;;;7.82;100.00;101621.53;10537540;28;20222;-70
2021/12/16 16:09:17;;;;;;;15.03;3.57;;;;;;;7.78;100.00;101630.94;10536461;28;20219;-66
2021/12/16 16:14:23;;;;;;;5.37;2.10;;;;;;;7.74;100.00;101639.50;10537091;28;20303;-68
2021/12/16 16:19:32;;;;;;;17.83;8.23;;;;;;;7.68;100.00;101644.50;10537499;28;20756;-67
2021/12/16 16:24:38;;;;;;;10.57;3.67;;;;;;;7.47;100.00;101646.59;10544274;28;20237;-69
2021/12/16 16:29:45;;;;;;;7.63;2.50;;;;;;;7.24;100.00;101662.41;10587208;28;20652;-68
2021/12/16 16:34:52;;;;;;;8.10;3.10;;;;;;;7.17;100.00;101650.19;10587024;28;20222;-68
2021/12/16 16:39:59;;;;;;;12.77;3.50;;;;;;;7.11;100.00;101652.63;10586679;28;20223;-68
2021/12/16 16:45:05;;;;;;;13.23;5.87;;;;;;;6.97;100.00;101647.97;10586620;28;20221;-68
2021/12/16 16:50:12;;;;;;;9.63;3.13;;;;;;;7.02;100.00;101642.97;10586463;28;20223;-65
2021/12/16 16:55:18;;;;;;;9.63;2.80;;;;;;;6.97;100.00;101637.66;10586381;28;20301;-66
2021/12/16 17:00:27;;;;;;;8.87;2.83;;;;;;;6.88;100.00;101640.03;10585956;28;20684;-69
2021/12/16 17:05:35;;;;;;;9.80;3.33;;;;;;;6.97;100.00;101644.56;10585713;28;20225;-68
2021/12/16 17:10:44;;;;;;;10.50;3.50;;;;;;;6.95;100.00;101641.06;10565865;28;20649;-67
2021/12/16 17:21:16;;;;;;;11.70;3.47;;;;;;;6.89;100.00;101659.84;10544152;28;20223;-69
2021/12/16 17:26:23;;;;;;;10.27;3.53;;;;;;;6.85;100.00;101660.56;10545863;28;20231;-66
2021/12/16 17:31:36;;;;;;;8.33;2.90;;;;;;;6.88;100.00;101660.69;10545236;28;20235;-69
2021/12/16 17:36:45;;;;;;;13.17;3.23;;;;;;;6.92;100.00;101671.91;10545066;28;20229;-66
2021/12/16 17:41:58;;;;;;;6.27;2.53;;;;;;;6.91;100.00;101673.66;10543893;28;20216;-65
2021/12/16 17:47:07;;;;;;;9.00;3.20;;;;;;;6.95;100.00;101675.47;10544774;28;20226;-66
2021/12/16 17:52:17;;;;;;;11.33;3.87;;;;;;;6.98;100.00;101672.97;10544472;28;20314;-67
2021/12/16 17:57:27;;;;;;;15.67;4.10;;;;;;;7.00;100.00;101660.09;10544408;28;20225;-66
2021/12/16 18:02:31;;;;;;;9.47;3.83;;;;;;;6.94;100.00;101660.81;10544030;28;20239;-68
2021/12/16 18:07:39;;;;;;;9.97;3.53;;;;;;;6.97;100.00;101653.16;10543980;28;20219;-67
2021/12/16 18:12:45;;;;;;;11.07;4.00;;;;;;;6.96;100.00;101642.78;10543759;28;20237;-68
2021/12/16 18:17:52;;;;;;;13.87;4.23;;;;;;;6.93;100.00;101642.72;10543571;28;20534;-68
2021/12/16 18:23:00;;;;;;;14.23;5.13;;;;;;;6.89;100.00;101665.00;10543513;28;20280;-67
2021/12/16 18:28:07;;;;;;;10.43;4.10;;;;;;;6.88;100.00;101663.25;10543101;28;20295;-71
2021/12/16 18:33:14;;;;;;;13.27;4.30;;;;;;;6.89;100.00;101666.69;10542963;28;20245;-69
2021/12/16 18:38:24;;;;;;;13.13;4.63;;;;;;;6.92;100.00;101667.66;10542952;28;20513;-69
2021/12/16 18:43:28;;;;;;;13.40;4.13;;;;;;;6.84;100.00;101666.59;10542532;28;20260;-66
2021/12/16 18:48:38;;;;;;;19.87;7.17;;;;;;;6.71;100.00;101661.91;10541920;28;20290;-69
2021/12/16 18:59:09;;;;;;;14.70;5.00;;;;;;;6.66;100.00;101670.41;10542055;28;20265;-67
2021/12/16 19:04:13;;;;;;;10.93;3.90;;;;;;;6.76;100.00;101682.69;10542159;28;20220;-68
2021/12/16 19:09:21;;;;;;;13.37;4.67;;;;;;;6.59;100.00;101676.22;10539492;28;20666;-73
2021/12/16 19:14:28;;;;;;;13.60;4.20;;;;;;;6.52;100.00;101666.56;10211059;27;10000487;-65
2021/12/16 19:19:32;;;;;;;15.67;4.10;;;;;;;6.58;100.00;101674.47;10581045;28;20214;-67
2021/12/16 19:24:39;;;;;;;18.83;4.20;;;;;;;6.49;100.00;101674.22;10580862;28;20242;-68
2021/12/16 19:29:45;;;;;;;12.00;3.77;;;;;;;6.46;100.00;101687.03;10565353;28;20211;-65
2021/12/16 19:34:50;;;;;;;17.67;4.17;;;;;;;6.48;100.00;101701.72;10538158;28;20215;-68
2021/12/16 19:39:55;;;;;;;13.13;4.23;;;;;;;6.52;100.00;101700.09;10538563;28;20225;-69
2021/12/16 19:44:59;;;;;;;27.80;9.90;;;;;;;6.51;100.00;101701.78;10538602;28;20229;-67
2021/12/16 19:50:03;;;;;;;18.17;5.00;;;;;;;6.40;100.00;101713.50;10538004;28;20230;-65
2021/12/16 19:55:08;;;;;;;16.83;5.90;;;;;;;6.47;100.00;101727.47;10538342;28;20314;-66
2021/12/16 20:00:18;;;;;;;12.30;3.70;;;;;;;6.50;100.00;101728.44;10541266;28;20242;-68
2021/12/16 20:05:22;;;;;;;14.73;5.30;;;;;;;6.49;100.00;101721.50;10545888;28;20206;-69
2021/12/16 20:10:30;;;;;;;10.77;4.20;;;;;;;6.58;100.00;101721.75;10545889;28;20225;-66
2021/12/16 20:15:37;;;;;;;14.70;3.47;;;;;;;6.62;100.00;101726.19;10580029;28;20195;-67
2021/12/16 20:20:44;;;;;;;13.40;3.17;;;;;;;6.58;100.00;101715.72;10588142;28;20194;-66
2021/12/16 20:25:58;;;;;;;19.23;4.93;;;;;;;6.32;100.00;101722.72;10587330;27;20198;-66
2021/12/16 20:31:05;;;;;;;16.77;4.23;;;;;;;6.45;100.00;101730.00;10587105;28;20305;-67
2021/12/16 20:36:12;;;;;;;16.67;4.90;;;;;;;6.39;100.00;101729.81;10587157;27;20543;-70
2021/12/16 20:41:19;;;;;;;14.53;4.63;;;;;;;6.42;100.00;101739.34;10586673;28;20197;-65
2021/12/16 20:46:27;;;;;;;14.20;4.53;;;;;;;6.45;100.00;101739.44;10586508;28;20205;-65
2021/12/16 20:51:35;;;;;;;12.80;4.10;;;;;;;6.47;100.00;101735.19;10586404;28;20223;-68
2021/12/16 20:56:42;;;;;;;16.13;4.63;;;;;;;6.33;100.00;101742.53;10586079;28;20201;-65
2021/12/16 21:01:50;;;;;;;16.70;4.90;;;;;;;6.30;100.00;101739.84;10585686;28;20241;-69
2021/12/16 21:06:54;;;;;;;12.93;3.80;;;;;;;6.29;100.00;101727.81;10585876;28;20187;-66
2021/12/16 21:12:02;;;;;;;14.57;4.03;;;;;;;6.36;100.00;101728.84;10580651;28;20672;-68
2021/12/16 21:17:07;;;;;;;13.80;3.60;;;;;;;6.34;100.00;101741.69;10543269;28;20213;-67
2021/12/16 21:22:11;;;;;;;16.83;3.57;;;;;;;6.30;100.00;101726.13;10542683;28;20615;-68
2021/12/16 21:27:17;;;;;;;14.67;4.83;;;;;;;6.28;100.00;101738.94;10542843;28;20196;-65
2021/12/16 21:32:22;;;;;;;20.27;5.50;;;;;;;6.25;100.00;101741.44;10542565;28;20237;-67
2021/12/16 21:37:25;;;;;;;20.40;4.67;;;;;;;6.27;100.00;101757.81;10542117;28;20211;-65
2021/12/16 21:42:32;;;;;;;17.60;3.70;;;;;;;6.28;100.00;101754.41;10541964;28;20219;-68
2021/12/16 21:47:37;;;;;;;19.73;4.43;;;;;;;6.26;100.00;101762.94;10542452;28;20211;-68
2021/12/16 21:52:41;;;;;;;14.73;4.23;;;;;;;6.22;100.00;101767.13;10541481;28;20227;-66
2021/12/16 21:57:48;;;;;;;15.67;4.40;;;;;;;6.17;100.00;101767.81;10541416;28;20215;-65
2021/12/16 22:02:51;;;;;;;15.63;4.50;;;;;;;6.18;100.00;101779.88;10541422;28;20656;-69
2021/12/16 22:07:55;;;;;;;18.80;4.37;;;;;;;6.19;100.00;101771.31;10541312;28;20307;-67
2021/12/16 22:13:00;;;;;;;20.57;5.03;;;;;;;6.10;100.00;101756.44;10553580;28;20272;-69
2021/12/16 22:18:07;;;;;;;19.57;4.80;;;;;;;6.14;100.00;101752.25;10582914;28;20225;-66
2021/12/16 22:23:14;;;;;;;16.70;4.90;;;;;;;6.03;100.00;101762.25;10581756;28;20242;-67
2021/12/16 22:28:19;;;;;;;16.07;4.63;;;;;;;6.09;100.00;101762.41;10582770;28;20207;-68
2021/12/16 22:33:25;;;;;;;18.97;4.80;;;;;;;5.99;100.00;101762.97;10581410;28;20551;-67
2021/12/16 22:38:32;;;;;;;14.90;4.67;;;;;;;6.03;100.00;101759.66;10582100;28;20306;-67
2021/12/16 22:43:36;;;;;;;17.17;4.73;;;;;;;5.83;100.00;101751.31;10582305;28;20688;-68
2021/12/16 22:48:44;;;;;;;16.77;5.17;;;;;;;5.94;100.00;101751.66;10582843;28;20238;-66
2021/12/16 22:53:48;;;;;;;17.77;5.43;;;;;;;5.88;100.00;101746.31;10581609;28;20223;-67
2021/12/16 22:58:54;;;;;;;17.87;5.13;;;;;;;5.88;100.00;101749.75;10583171;28;20241;-69
2021/12/16 23:03:58;;;;;;;18.17;5.23;;;;;;;5.81;100.00;101746.91;10584767;28;20233;-65
2021/12/16 23:09:05;;;;;;;22.23;4.87;;;;;;;5.78;100.00;101747.69;10584375;28;20229;-67
2021/12/16 23:14:15;;;;;;;15.27;4.90;;;;;;;5.72;100.00;101731.16;10551152;28;20698;-66
2021/12/16 23:24:59;;;;;;;17.47;5.17;;;;;;;5.54;100.00;101731.47;10539433;28;20229;-65
2021/12/16 23:30:05;;;;;;;18.93;5.67;;;;;;;5.51;100.00;101721.06;10541765;28;20223;-68
2021/12/16 23:35:10;;;;;;;19.30;4.73;;;;;;;5.63;100.00;101716.31;10547066;28;20225;-70
2021/12/16 23:40:14;;;;;;;17.00;4.43;;;;;;;5.65;100.00;101730.09;10550528;28;20230;-68
2021/12/16 23:56:03;;;;;;;19.27;4.53;;;;;;;5.44;100.00;101718.22;10549851;28;20214;-66
